createdAt,value
2023-01-17T00:02:11.365Z,100643.81
2023-01-17T00:04:57.147Z,100639.23
2023-01-17T00:07:43.546Z,100639.97
2023-01-17T00:10:13.886Z,100635.19
2023-01-17T00:12:46.798Z,100637.05
2023-01-17T00:15:14.388Z,100636.80
2023-01-17T00:17:41.506Z,100635.79
2023-01-17T00:20:31.716Z,100633.20
2023-01-17T00:23:17.354Z,100628.42
2023-01-17T00:26:02.994Z,100626.02
2023-01-17T00:28:39.970Z,100617.55
2023-01-17T00:31:07.976Z,100609.14
2023-01-17T00:33:35.200Z,100614.70
2023-01-17T00:36:02.843Z,100617.73
2023-01-17T00:38:31.559Z,100617.02
2023-01-17T00:41:03.128Z,100610.19
2023-01-17T00:43:49.316Z,100608.49
2023-01-17T00:46:35.036Z,100605.93
2023-01-17T00:49:20.708Z,100606.15
2023-01-17T00:52:06.370Z,100605.87
2023-01-17T00:54:52.287Z,100601.20
2023-01-17T00:57:37.884Z,100596.23
2023-01-17T01:00:24.037Z,100590.40
2023-01-17T01:03:09.649Z,100584.30
2023-01-17T01:05:56.282Z,100584.54
2023-01-17T01:08:46.531Z,100579.58
2023-01-17T01:11:34.377Z,100575.61
2023-01-17T01:14:19.956Z,100575.48
2023-01-17T01:17:05.650Z,100574.63
2023-01-17T01:19:55.181Z,100574.34
2023-01-17T01:22:40.793Z,100566.91
2023-01-17T01:25:27.081Z,100557.59
2023-01-17T01:28:29.241Z,100553.98
2023-01-17T01:31:14.916Z,100550.02
2023-01-17T01:33:42.281Z,100552.16
2023-01-17T01:36:09.490Z,100551.52
2023-01-17T01:38:36.813Z,100552.91
2023-01-17T01:41:04.080Z,100553.83
2023-01-17T01:43:48.540Z,100553.69
2023-01-17T01:46:36.949Z,100550.39
2023-01-17T01:49:25.042Z,100544.67
2023-01-17T01:51:55.003Z,100546.34
2023-01-17T01:54:28.362Z,100545.30
2023-01-17T01:56:56.020Z,100540.43
2023-01-17T01:59:23.390Z,100539.42
2023-01-17T02:01:51.836Z,100532.52
2023-01-17T02:04:19.462Z,100526.98
2023-01-17T02:06:48.861Z,100522.30
2023-01-17T02:09:16.205Z,100519.51
2023-01-17T02:11:43.402Z,100522.30
2023-01-17T02:14:15.956Z,100522.33
2023-01-17T02:16:59.223Z,100528.25
2023-01-17T02:19:29.877Z,100524.67
2023-01-17T02:22:14.849Z,100520.00
2023-01-17T02:24:48.104Z,100523.81
2023-01-17T02:27:26.073Z,100521.21
2023-01-17T02:30:30.689Z,100506.98
2023-01-17T02:33:06.232Z,100497.65
2023-01-17T02:35:40.512Z,100492.44
2023-01-17T02:38:44.511Z,100490.04
2023-01-17T02:41:16.219Z,100486.95
2023-01-17T02:43:43.378Z,100487.10
2023-01-17T02:46:10.562Z,100482.09
2023-01-17T02:48:38.188Z,100484.92
2023-01-17T02:51:21.378Z,100485.64
2023-01-17T02:54:14.193Z,100484.43
2023-01-17T02:57:20.444Z,100483.06
2023-01-17T02:59:56.132Z,100480.31
2023-01-17T03:02:28.547Z,100477.40
2023-01-17T03:05:00.352Z,100480.55
2023-01-17T03:07:27.889Z,100479.33
2023-01-17T03:09:59.618Z,100478.48
2023-01-17T03:12:31.467Z,100479.18
2023-01-17T03:14:58.739Z,100481.33
2023-01-17T03:17:29.410Z,100483.30
2023-01-17T03:19:56.742Z,100480.34
2023-01-17T03:22:24.113Z,100485.52
2023-01-17T03:24:51.636Z,100485.58
2023-01-17T03:27:18.957Z,100485.77
2023-01-17T03:29:46.186Z,100481.64
2023-01-17T03:32:13.475Z,100478.88
2023-01-17T03:34:40.770Z,100481.98
2023-01-17T03:37:08.146Z,100477.32
2023-01-17T03:39:35.379Z,100473.70
2023-01-17T03:42:02.767Z,100474.58
2023-01-17T03:44:29.986Z,100472.88
2023-01-17T03:46:57.248Z,100468.09
2023-01-17T03:49:24.604Z,100475.74
2023-01-17T03:51:52.280Z,100480.27
2023-01-17T03:54:19.556Z,100481.55
2023-01-17T03:56:46.896Z,100483.11
2023-01-17T03:59:14.222Z,100479.52
2023-01-17T04:01:42.086Z,100480.47
2023-01-17T04:04:09.330Z,100480.31
2023-01-17T04:06:37.107Z,100478.98
2023-01-17T04:09:04.463Z,100476.55
2023-01-17T04:11:31.804Z,100473.46
2023-01-17T04:13:59.579Z,100470.71
2023-01-17T04:16:29.247Z,100467.95
2023-01-17T04:18:57.049Z,100462.08
2023-01-17T04:21:24.422Z,100458.32
2023-01-17T04:23:51.770Z,100460.95
2023-01-17T04:26:20.074Z,100470.36
2023-01-17T04:28:48.136Z,100468.35
2023-01-17T04:31:16.704Z,100468.22
2023-01-17T04:33:45.077Z,100467.36
2023-01-17T04:36:12.429Z,100468.27
2023-01-17T04:38:39.802Z,100475.86
2023-01-17T04:41:08.145Z,100482.96
2023-01-17T04:43:35.857Z,100480.04
2023-01-17T04:46:05.156Z,100484.92
2023-01-17T04:48:33.458Z,100479.95
2023-01-17T04:51:01.579Z,100476.36
2023-01-17T04:53:29.785Z,100471.39
2023-01-17T04:55:57.249Z,100468.09
2023-01-17T04:58:24.994Z,100469.71
2023-01-17T05:00:53.159Z,100467.64
2023-01-17T05:03:21.265Z,100458.33
2023-01-17T05:05:51.024Z,100458.89
2023-01-17T05:08:20.975Z,100458.21
2023-01-17T05:10:50.391Z,100453.23
2023-01-17T05:13:20.471Z,100453.81
2023-01-17T05:15:51.211Z,100454.52
2023-01-17T05:18:22.129Z,100452.45
2023-01-17T05:20:52.671Z,100451.80
2023-01-17T05:23:23.483Z,100455.16
2023-01-17T05:25:53.543Z,100453.80
2023-01-17T05:28:23.542Z,100450.86
2023-01-17T05:30:53.055Z,100450.20
2023-01-17T05:33:22.845Z,100446.56
2023-01-17T05:35:54.002Z,100435.65
2023-01-17T05:38:25.064Z,100432.71
2023-01-17T05:40:56.035Z,100430.49
2023-01-17T05:43:26.083Z,100429.61
2023-01-17T05:45:57.067Z,100435.94
2023-01-17T05:48:29.088Z,100446.36
2023-01-17T05:51:00.082Z,100451.55
2023-01-17T05:53:31.297Z,100443.91
2023-01-17T05:56:01.105Z,100440.60
2023-01-17T05:58:30.473Z,100449.08
2023-01-17T06:01:01.870Z,100445.98
2023-01-17T06:03:32.397Z,100451.08
